createdAt,value
2018-11-14T00:00:38.827Z,10.58
2018-11-14T00:03:09.142Z,10.58
2018-11-14T00:05:38.669Z,10.61
2018-11-14T00:08:08.049Z,10.63
2018-11-14T00:10:37.726Z,10.60
2018-11-14T00:13:07.103Z,10.57
2018-11-14T00:15:36.538Z,10.53
2018-11-14T00:18:05.986Z,10.50
2018-11-14T00:20:35.624Z,10.49
2018-11-14T00:23:05.019Z,10.48
2018-11-14T00:25:34.541Z,10.47
2018-11-14T00:28:03.992Z,10.47
2018-11-14T00:30:33.451Z,10.50
2018-11-14T00:33:02.839Z,10.51
2018-11-14T00:35:32.261Z,10.48
2018-11-14T00:38:06.466Z,10.49
2018-11-14T00:40:35.814Z,10.48
2018-11-14T00:43:05.563Z,10.50
2018-11-14T00:45:34.947Z,10.52
2018-11-14T00:48:04.362Z,10.52
2018-11-14T00:50:33.710Z,10.53
2018-11-14T00:53:04.259Z,10.54
2018-11-14T00:55:33.565Z,10.56
2018-11-14T00:58:02.886Z,10.57
2018-11-14T01:00:32.524Z,10.57
2018-11-14T01:03:01.922Z,10.58
2018-11-14T01:05:31.424Z,10.60
2018-11-14T01:08:01.116Z,10.61
2018-11-14T01:10:30.590Z,10.64
2018-11-14T01:13:00.042Z,10.64
2018-11-14T01:15:30.887Z,10.68
2018-11-14T01:18:00.299Z,10.67
2018-11-14T01:20:29.657Z,10.68
2018-11-14T01:22:59.986Z,10.68
2018-11-14T01:25:29.408Z,10.66
2018-11-14T01:27:58.783Z,10.64
2018-11-14T01:30:28.536Z,10.60
2018-11-14T01:32:57.995Z,10.60
2018-11-14T01:35:27.298Z,10.59
2018-11-14T01:37:56.712Z,10.59
2018-11-14T01:40:26.497Z,10.57
2018-11-14T01:42:57.077Z,10.60
2018-11-14T01:45:26.533Z,10.60
2018-11-14T01:47:55.931Z,10.62
2018-11-14T01:50:25.437Z,10.61
2018-11-14T01:52:54.785Z,10.59
2018-11-14T01:55:24.126Z,10.58
2018-11-14T01:57:53.590Z,10.56
2018-11-14T02:00:24.404Z,10.53
2018-11-14T02:02:54.121Z,10.48
2018-11-14T02:05:23.533Z,10.47
2018-11-14T02:07:54.924Z,10.44
2018-11-14T02:10:24.376Z,10.39
2018-11-14T02:12:53.849Z,10.33
2018-11-14T02:15:24.184Z,10.33
2018-11-14T02:17:53.990Z,10.29
2018-11-14T02:20:23.492Z,10.27
2018-11-14T02:22:53.080Z,10.27
2018-11-14T02:25:22.438Z,10.25
2018-11-14T02:27:51.765Z,10.24
2018-11-14T02:30:22.758Z,10.24
2018-11-14T02:32:52.095Z,10.27
2018-11-14T02:35:21.519Z,10.24
2018-11-14T02:37:51.039Z,10.23
2018-11-14T02:40:21.541Z,10.20
2018-11-14T02:42:51.020Z,10.17
2018-11-14T02:45:20.446Z,10.21
2018-11-14T02:47:50.084Z,10.26
2018-11-14T02:50:19.726Z,10.26
2018-11-14T02:52:55.884Z,10.32
2018-11-14T02:55:25.259Z,10.33
2018-11-14T02:57:54.637Z,10.36
2018-11-14T03:00:24.085Z,10.37
2018-11-14T03:02:53.445Z,10.38
2018-11-14T03:05:22.822Z,10.39
2018-11-14T03:07:52.223Z,10.40
2018-11-14T03:10:22.271Z,10.40
2018-11-14T03:12:51.628Z,10.40
2018-11-14T03:15:22.705Z,10.36
2018-11-14T03:17:52.079Z,10.34
2018-11-14T03:20:22.185Z,10.29
2018-11-14T03:22:51.602Z,10.26
2018-11-14T03:25:21.075Z,10.25
2018-11-14T03:27:50.503Z,10.22
2018-11-14T03:30:19.856Z,10.25
2018-11-14T03:32:49.115Z,10.26
2018-11-14T03:35:18.541Z,10.28
2018-11-14T03:37:47.893Z,10.32
2018-11-14T03:40:17.886Z,10.37
2018-11-14T03:42:47.337Z,10.40
2018-11-14T03:45:16.749Z,10.46
2018-11-14T03:47:46.094Z,10.49
2018-11-14T03:50:15.551Z,10.53
2018-11-14T03:52:44.895Z,10.58
2018-11-14T03:55:14.378Z,10.57
2018-11-14T03:57:43.767Z,10.55
2018-11-14T04:00:14.979Z,10.55
2018-11-14T04:02:45.627Z,10.53
2018-11-14T04:05:15.006Z,10.48
2018-11-14T04:07:44.333Z,10.43
2018-11-14T04:10:14.572Z,10.35
2018-11-14T04:12:44.241Z,10.31
2018-11-14T04:15:14.543Z,10.23
2018-11-14T04:17:44.082Z,10.16
2018-11-14T04:20:15.761Z,10.11
2018-11-14T04:22:45.652Z,10.08
2018-11-14T04:25:19.385Z,10.02
2018-11-14T04:27:49.543Z,9.96
2018-11-14T04:30:20.305Z,9.94
2018-11-14T04:32:49.809Z,9.93
2018-11-14T04:35:20.126Z,9.94
2018-11-14T04:37:49.670Z,9.91
2018-11-14T04:40:20.961Z,9.87
2018-11-14T04:42:50.396Z,9.84
2018-11-14T04:45:26.644Z,9.79
2018-11-14T04:47:56.158Z,9.79
2018-11-14T04:50:26.575Z,9.76
2018-11-14T04:52:56.600Z,9.71
2018-11-14T04:55:26.951Z,9.69
2018-11-14T04:57:56.417Z,9.60
2018-11-14T05:00:26.851Z,9.59
2018-11-14T05:02:56.237Z,9.61
2018-11-14T05:05:26.788Z,9.58
2018-11-14T05:07:56.162Z,9.41
2018-11-14T05:10:26.717Z,9.43
2018-11-14T05:12:57.417Z,9.46
2018-11-14T05:15:26.802Z,9.46
2018-11-14T05:17:56.399Z,9.43
2018-11-14T05:20:25.890Z,9.40
2018-11-14T05:22:55.365Z,9.30
2018-11-14T05:25:24.725Z,9.35
2018-11-14T05:27:54.105Z,9.30
2018-11-14T05:30:24.316Z,9.20
2018-11-14T05:32:53.999Z,9.16
2018-11-14T05:35:23.346Z,9.09
2018-11-14T05:37:52.763Z,9.01
2018-11-14T05:40:22.987Z,8.99
2018-11-14T05:42:52.929Z,8.95
2018-11-14T05:45:24.673Z,8.87
2018-11-14T05:47:54.372Z,8.88
2018-11-14T05:50:24.179Z,8.86
2018-11-14T05:52:53.507Z,8.86
2018-11-14T05:55:22.883Z,8.82
2018-11-14T05:57:52.186Z,8.81
2018-11-14T06:00:25.234Z,8.80
2018-11-14T06:02:54.495Z,8.81
2018-11-14T06:05:23.839Z,8.79
2018-11-14T06:07:53.245Z,8.75
2018-11-14T06:10:22.664Z,8.70
2018-11-14T06:12:52.133Z,8.74
2018-11-14T06:15:22.180Z,8.73
2018-11-14T06:17:52.735Z,8.71
2018-11-14T06:20:22.825Z,8.73
2018-11-14T06:22:53.133Z,8.71
2018-11-14T06:25:32.763Z,8.76
2018-11-14T06:28:03.338Z,8.69
2018-11-14T06:30:33.348Z,8.73
2018-11-14T06:33:03.921Z,8.74
2018-11-14T06:35:33.384Z,8.74
2018-11-14T06:38:02.914Z,8.78
2018-11-14T06:40:32.395Z,8.81
2018-11-14T06:43:01.868Z,8.87
2018-11-14T06:45:32.616Z,8.89
2018-11-14T06:48:02.941Z,8.93
2018-11-14T06:50:32.483Z,8.94
2018-11-14T06:53:03.387Z,8.97
2018-11-14T06:55:32.995Z,8.97
2018-11-14T06:58:02.850Z,8.82
2018-11-14T07:00:33.112Z,8.89
2018-11-14T07:03:04.125Z,8.90
2018-11-14T07:05:33.696Z,8.91
2018-11-14T07:08:03.195Z,8.90
2018-11-14T07:10:34.133Z,9.00
2018-11-14T07:13:05.298Z,9.02
2018-11-14T07:15:37.020Z,9.05
2018-11-14T07:18:09.782Z,9.05
2018-11-14T07:20:43.072Z,8.97
2018-11-14T07:23:14.049Z,9.03
2018-11-14T07:25:45.621Z,9.06
2018-11-14T07:28:16.674Z,9.13
2018-11-14T07:30:49.808Z,9.16
2018-11-14T07:33:21.470Z,9.18
2018-11-14T07:35:53.218Z,9.24
2018-11-14T07:38:40.407Z,9.24
2018-11-14T07:41:15.394Z,9.33
2018-11-14T07:43:46.980Z,9.35
2018-11-14T07:46:19.000Z,9.39
2018-11-14T07:48:50.436Z,9.33
2018-11-14T07:51:23.260Z,9.30
2018-11-14T07:53:54.315Z,9.39
2018-11-14T07:56:25.412Z,9.32
2018-11-14T07:58:56.721Z,9.44
2018-11-14T08:01:28.803Z,9.45
2018-11-14T08:04:00.395Z,9.47
2018-11-14T08:06:31.040Z,9.54
2018-11-14T08:09:01.868Z,9.57
2018-11-14T08:11:33.712Z,9.55
2018-11-14T08:14:04.956Z,9.62
2018-11-14T08:16:36.922Z,9.61
2018-11-14T08:19:08.666Z,9.67
2018-11-14T08:21:40.733Z,9.73
2018-11-14T08:24:11.081Z,9.76
2018-11-14T08:26:41.704Z,9.80
2018-11-14T08:29:12.417Z,9.90
2018-11-14T08:31:44.849Z,9.85
2018-11-14T08:34:15.406Z,9.88
2018-11-14T08:36:46.616Z,9.89
2018-11-14T08:39:17.511Z,9.97
2018-11-14T08:41:48.198Z,10.02
2018-11-14T08:44:19.821Z,10.02
2018-11-14T08:46:52.521Z,10.03
2018-11-14T08:49:23.471Z,10.07
2018-11-14T08:51:54.552Z,10.02
2018-11-14T08:54:24.331Z,10.06
2018-11-14T08:56:53.882Z,10.13
2018-11-14T08:59:23.521Z,10.03
2018-11-14T09:01:52.888Z,10.16
2018-11-14T09:04:22.428Z,10.17
2018-11-14T09:06:52.032Z,10.14
2018-11-14T09:09:21.424Z,10.07
2018-11-14T09:11:50.886Z,10.06
2018-11-14T09:14:20.410Z,10.03
2018-11-14T09:16:49.902Z,10.03
2018-11-14T09:19:19.526Z,9.98
2018-11-14T09:21:49.049Z,9.97
2018-11-14T09:24:18.678Z,9.93
2018-11-14T09:26:48.259Z,9.90
2018-11-14T09:29:18.120Z,9.87
2018-11-14T09:31:48.027Z,9.86
2018-11-14T09:34:18.446Z,9.81
2018-11-14T09:36:48.481Z,9.76
2018-11-14T09:39:18.167Z,9.81
2018-11-14T09:41:47.846Z,9.79
2018-11-14T09:44:17.785Z,9.77
2018-11-14T09:46:48.038Z,9.72
2018-11-14T09:49:17.796Z,9.77
2018-11-14T09:51:47.597Z,9.73
2018-11-14T09:54:17.236Z,9.66
2018-11-14T09:56:47.159Z,9.65
2018-11-14T09:59:17.127Z,9.71
2018-11-14T10:01:46.938Z,9.67
2018-11-14T10:04:16.542Z,9.62
2018-11-14T10:06:47.536Z,9.73
2018-11-14T10:09:17.333Z,9.69
2018-11-14T10:11:47.157Z,9.81
2018-11-14T10:14:16.790Z,9.79
2018-11-14T10:16:46.588Z,9.77
2018-11-14T10:19:16.025Z,9.77
2018-11-14T10:21:45.789Z,9.76
2018-11-14T10:24:15.116Z,9.79
2018-11-14T10:26:44.533Z,9.79
2018-11-14T10:29:14.176Z,9.75
2018-11-14T10:31:43.553Z,9.80
2018-11-14T10:34:13.010Z,9.73
2018-11-14T10:36:42.431Z,9.73
2018-11-14T10:39:12.269Z,9.70
2018-11-14T10:41:41.629Z,9.69
2018-11-14T10:44:10.967Z,9.65
2018-11-14T10:46:40.400Z,9.53
2018-11-14T10:49:10.010Z,9.68
2018-11-14T10:51:39.341Z,9.62
2018-11-14T10:54:08.815Z,9.81
2018-11-14T10:56:38.263Z,9.92
2018-11-14T10:59:07.660Z,9.93
2018-11-14T11:01:42.475Z,9.81
2018-11-14T11:04:17.171Z,9.76
2018-11-14T11:06:52.024Z,9.86
2018-11-14T11:09:26.614Z,9.95
2018-11-14T11:12:01.303Z,10.03
2018-11-14T11:14:41.355Z,10.11
2018-11-14T11:17:16.472Z,10.09
2018-11-14T11:19:46.014Z,10.01
2018-11-14T11:22:16.454Z,9.91
2018-11-14T11:24:45.852Z,9.88
2018-11-14T11:27:15.856Z,9.86
2018-11-14T11:29:45.665Z,9.92
2018-11-14T11:32:15.091Z,9.97
2018-11-14T11:34:44.460Z,9.88
2018-11-14T11:37:13.925Z,10.02
2018-11-14T11:39:43.365Z,10.07
2018-11-14T11:42:13.465Z,9.97
2018-11-14T11:44:42.825Z,10.04
2018-11-14T11:47:12.356Z,10.16
2018-11-14T11:49:42.000Z,10.20
2018-11-14T11:52:11.623Z,10.28
2018-11-14T11:54:41.466Z,10.33
2018-11-14T11:57:11.043Z,10.33
2018-11-14T11:59:40.731Z,10.33
2018-11-14T12:02:10.634Z,10.25
2018-11-14T12:04:40.086Z,10.22
2018-11-14T12:07:09.857Z,10.23
2018-11-14T12:09:39.602Z,10.25
2018-11-14T12:12:09.253Z,10.27
2018-11-14T12:14:38.815Z,10.35
2018-11-14T12:17:08.510Z,10.37
2018-11-14T12:19:39.749Z,10.47
2018-11-14T12:22:09.245Z,10.53
2018-11-14T12:24:40.053Z,10.53
2018-11-14T12:27:11.388Z,10.50
2018-11-14T12:29:40.812Z,10.43
2018-11-14T12:32:10.494Z,10.46
2018-11-14T12:34:39.894Z,10.32
2018-11-14T12:37:09.271Z,10.41
2018-11-14T12:39:38.764Z,10.41
2018-11-14T12:42:08.206Z,10.45
2018-11-14T12:44:37.683Z,10.43
2018-11-14T12:47:07.174Z,10.42
2018-11-14T12:49:36.641Z,10.45
2018-11-14T12:52:06.227Z,10.46
2018-11-14T12:54:35.688Z,10.48
2018-11-14T12:57:05.421Z,10.46
2018-11-14T12:59:34.843Z,10.58
2018-11-14T13:02:04.343Z,10.54
2018-11-14T13:04:33.668Z,10.64
2018-11-14T13:07:02.990Z,10.67
2018-11-14T13:09:32.430Z,10.57
2018-11-14T13:12:01.936Z,10.68
2018-11-14T13:14:31.367Z,10.69
2018-11-14T13:17:00.840Z,10.73
2018-11-14T13:19:30.238Z,10.70
2018-11-14T13:21:59.796Z,10.65
2018-11-14T13:24:29.323Z,10.63
2018-11-14T13:26:58.720Z,10.62
2018-11-14T13:29:28.498Z,10.66
2018-11-14T13:31:57.959Z,10.73
2018-11-14T13:34:27.532Z,10.81
2018-11-14T13:36:59.133Z,10.84
2018-11-14T13:39:30.876Z,10.86
2018-11-14T13:42:00.683Z,10.86
2018-11-14T13:44:32.157Z,10.75
2018-11-14T13:47:04.069Z,10.91
2018-11-14T13:49:35.927Z,10.94
2018-11-14T13:52:07.484Z,10.90
2018-11-14T13:54:37.172Z,10.91
2018-11-14T13:57:06.674Z,10.94
2018-11-14T13:59:36.199Z,10.97
2018-11-14T14:02:06.024Z,10.96
2018-11-14T14:04:38.440Z,11.03
2018-11-14T14:07:09.218Z,11.03
2018-11-14T14:09:40.675Z,11.00
2018-11-14T14:12:10.266Z,10.98
2018-11-14T14:14:39.846Z,10.97
2018-11-14T14:17:09.328Z,10.88
2018-11-14T14:19:38.885Z,10.79
2018-11-14T14:22:08.410Z,10.72
2018-11-14T14:24:37.924Z,10.72
2018-11-14T14:27:07.441Z,10.68
2018-11-14T14:29:37.050Z,10.54
2018-11-14T14:32:06.967Z,10.51
2018-11-14T14:34:37.678Z,10.52
2018-11-14T14:37:07.263Z,10.48
2018-11-14T14:39:36.919Z,10.50
2018-11-14T14:42:06.735Z,10.54
2018-11-14T14:44:36.341Z,10.51
2018-11-14T14:47:05.944Z,10.51
2018-11-14T14:49:35.647Z,10.47
2018-11-14T14:52:05.449Z,10.52
2018-11-14T14:54:40.864Z,10.59
2018-11-14T14:57:10.360Z,10.61
2018-11-14T14:59:42.010Z,10.57
2018-11-14T15:02:11.522Z,10.60
2018-11-14T15:04:42.089Z,10.57
2018-11-14T15:08:36.094Z,10.55
2018-11-14T15:11:06.570Z,10.52
2018-11-14T15:13:35.980Z,10.51
2018-11-14T15:16:05.892Z,10.51
2018-11-14T15:18:35.624Z,10.50
2018-11-14T15:21:05.781Z,10.48
2018-11-14T15:23:35.546Z,10.45
2018-11-14T15:26:06.621Z,10.45
2018-11-14T15:28:36.392Z,10.34
2018-11-14T15:31:05.986Z,10.34
2018-11-14T15:33:35.464Z,10.34
2018-11-14T15:36:04.897Z,10.30
2018-11-14T15:38:34.247Z,10.29
2018-11-14T15:41:05.213Z,10.33
2018-11-14T15:43:35.160Z,10.33
2018-11-14T15:46:04.964Z,10.35
2018-11-14T15:48:35.145Z,10.37
2018-11-14T15:51:04.835Z,10.38
2018-11-14T15:53:35.342Z,10.39
2018-11-14T15:56:08.393Z,10.34
2018-11-14T15:58:38.268Z,10.37
2018-11-14T16:01:07.810Z,10.38
2018-11-14T16:03:37.266Z,10.34
2018-11-14T16:06:06.846Z,10.29
2018-11-14T16:08:36.453Z,10.30
2018-11-14T16:11:07.425Z,10.23
2018-11-14T16:13:37.750Z,10.18
2018-11-14T16:16:07.211Z,10.18
2018-11-14T16:18:36.788Z,10.18
2018-11-14T16:21:07.861Z,10.16
2018-11-14T16:23:38.346Z,10.11
2018-11-14T16:26:08.647Z,9.99
2018-11-14T16:28:39.317Z,10.05
2018-11-14T16:31:08.813Z,10.05
2018-11-14T16:33:39.080Z,10.04
2018-11-14T16:36:10.746Z,10.05
2018-11-14T16:38:40.279Z,10.06
2018-11-14T16:41:10.607Z,10.07
2018-11-14T16:43:40.632Z,10.09
2018-11-14T16:46:11.259Z,10.07
2018-11-14T16:48:40.859Z,10.10
2018-11-14T16:51:10.869Z,10.10
2018-11-14T16:53:40.338Z,10.07
2018-11-14T16:56:10.001Z,10.08
2018-11-14T16:58:41.308Z,10.09
2018-11-14T17:01:11.990Z,10.11
2018-11-14T17:03:42.960Z,10.11
2018-11-14T17:06:13.477Z,10.13
2018-11-14T17:08:43.094Z,10.07
2018-11-14T17:11:12.543Z,10.12
2018-11-14T17:13:44.350Z,10.13
2018-11-14T17:16:15.578Z,10.19
2018-11-14T17:18:45.016Z,10.19
2018-11-14T17:21:15.732Z,10.20
2018-11-14T17:23:45.874Z,10.15
2018-11-14T17:26:16.492Z,10.20
2018-11-14T17:28:46.334Z,10.21
2018-11-14T17:31:15.750Z,10.23
2018-11-14T17:33:47.625Z,10.21
2018-11-14T17:36:17.358Z,10.21
2018-11-14T17:38:46.925Z,10.24
2018-11-14T17:41:17.040Z,10.23
2018-11-14T17:43:47.630Z,10.28
2018-11-14T17:46:17.675Z,10.30
2018-11-14T17:48:48.626Z,10.28
2018-11-14T17:51:18.118Z,10.28
2018-11-14T17:53:47.621Z,10.33
2018-11-14T17:56:18.742Z,10.35
2018-11-14T17:58:49.398Z,10.36
2018-11-14T18:01:20.264Z,10.37
2018-11-14T18:03:49.941Z,10.35
2018-11-14T18:06:19.350Z,10.40
2018-11-14T18:08:49.225Z,10.42
2018-11-14T18:11:18.865Z,10.48
2018-11-14T18:13:48.531Z,10.51
2018-11-14T18:16:18.285Z,10.53
2018-11-14T18:18:48.452Z,10.55
2018-11-14T18:21:18.469Z,10.59
2018-11-14T18:23:50.085Z,10.56
2018-11-14T18:26:20.409Z,10.56
2018-11-14T18:28:51.507Z,10.58
2018-11-14T18:31:22.934Z,10.60
2018-11-14T18:33:53.542Z,10.62
2018-11-14T18:36:24.150Z,10.66
2018-11-14T18:38:56.594Z,10.67
2018-11-14T18:41:27.106Z,10.69
2018-11-14T18:43:57.319Z,10.69
2018-11-14T18:46:28.652Z,10.68
2018-11-14T18:48:59.785Z,10.71
2018-11-14T18:51:30.799Z,10.72
2018-11-14T18:54:01.000Z,10.74
2018-11-14T18:56:31.864Z,10.77
2018-11-14T18:59:01.605Z,10.76
2018-11-14T19:01:33.367Z,10.74
2018-11-14T19:04:03.399Z,10.72
2018-11-14T19:06:33.651Z,10.73
2018-11-14T19:09:03.941Z,10.75
2018-11-14T19:11:34.407Z,10.72
2018-11-14T19:14:04.266Z,10.71
2018-11-14T19:16:35.147Z,10.67
2018-11-14T19:19:04.684Z,10.69
2018-11-14T19:21:35.126Z,10.72
2018-11-14T19:24:05.600Z,10.75
2018-11-14T19:26:35.715Z,10.75
2018-11-14T19:29:07.250Z,10.76
2018-11-14T19:31:38.067Z,10.76
2018-11-14T19:34:08.516Z,10.74
2018-11-14T19:36:40.336Z,10.73
2018-11-14T19:39:12.829Z,10.75
2018-11-14T19:41:43.107Z,10.74
2018-11-14T19:44:13.234Z,10.71
2018-11-14T19:46:44.199Z,10.72
2018-11-14T19:49:18.384Z,10.72
2018-11-14T19:51:50.536Z,10.72
2018-11-14T19:54:22.865Z,10.73
2018-11-14T19:56:54.099Z,10.74
2018-11-14T19:59:28.204Z,10.76
2018-11-14T20:02:00.763Z,10.75
2018-11-14T20:04:49.299Z,10.79
2018-11-14T20:07:27.517Z,10.77
2018-11-14T20:10:00.660Z,10.75
2018-11-14T20:21:44.884Z,10.77
2018-11-14T20:24:16.781Z,10.78
2018-11-14T20:26:48.435Z,10.81
2018-11-14T20:29:22.950Z,10.81
2018-11-14T20:31:53.972Z,10.80
2018-11-14T20:34:24.119Z,10.83
2018-11-14T20:36:54.104Z,10.83
2018-11-14T20:39:24.137Z,10.84
2018-11-14T20:41:54.651Z,10.84
2018-11-14T20:44:24.332Z,10.82
2018-11-14T20:46:53.989Z,10.84
2018-11-14T20:49:23.880Z,10.81
2018-11-14T20:51:53.651Z,10.82
2018-11-14T20:54:23.375Z,10.82
2018-11-14T20:56:53.422Z,10.84
2018-11-14T20:59:26.700Z,10.81
2018-11-14T21:01:57.108Z,10.81
2018-11-14T21:04:26.934Z,10.83
2018-11-14T21:06:56.565Z,10.87
2018-11-14T21:09:26.314Z,10.85
2018-11-14T21:11:56.324Z,10.85
2018-11-14T21:14:26.047Z,10.82
2018-11-14T21:16:56.084Z,10.81
2018-11-14T21:19:25.651Z,10.77
2018-11-14T21:21:55.059Z,10.79
2018-11-14T21:24:24.475Z,10.73
2018-11-14T21:26:53.854Z,10.74
2018-11-14T21:29:23.415Z,10.72
2018-11-14T21:31:52.900Z,10.70
2018-11-14T21:34:22.298Z,10.68
2018-11-14T21:36:52.324Z,10.67
2018-11-14T21:39:22.374Z,10.65
2018-11-14T21:41:52.152Z,10.61
2018-11-14T21:44:22.029Z,10.58
2018-11-14T21:46:52.112Z,10.57
2018-11-14T21:49:29.013Z,10.57
2018-11-14T21:51:59.831Z,10.55
2018-11-14T21:54:29.774Z,10.52
2018-11-14T21:56:59.562Z,10.50
2018-11-14T21:59:28.869Z,10.53
2018-11-14T22:01:58.285Z,10.54
2018-11-14T22:04:27.758Z,10.53
2018-11-14T22:06:57.110Z,10.47
2018-11-14T22:09:26.535Z,10.41
2018-11-14T22:11:56.045Z,10.41
2018-11-14T22:14:25.441Z,10.39
2018-11-14T22:16:55.051Z,10.40
2018-11-14T22:19:24.570Z,10.40
2018-11-14T22:21:58.877Z,10.38
2018-11-14T22:24:28.349Z,10.35
2018-11-14T22:26:57.810Z,10.35
2018-11-14T22:29:27.119Z,10.33
2018-11-14T22:31:56.637Z,10.29
2018-11-14T22:34:26.077Z,10.26
2018-11-14T22:36:55.431Z,10.25
2018-11-14T22:39:25.051Z,10.23
2018-11-14T22:41:54.419Z,10.25
2018-11-14T22:44:23.793Z,10.21
2018-11-14T22:46:54.921Z,10.24
2018-11-14T22:49:24.423Z,10.24
2018-11-14T22:51:54.022Z,10.19
2018-11-14T22:54:23.610Z,10.19
2018-11-14T22:56:52.979Z,10.20
2018-11-14T22:59:22.571Z,10.20
2018-11-14T23:01:51.930Z,10.20
2018-11-14T23:04:21.412Z,10.21
2018-11-14T23:06:50.774Z,10.23
2018-11-14T23:09:20.338Z,10.24
2018-11-14T23:11:49.639Z,10.25
2018-11-14T23:14:19.042Z,10.26
2018-11-14T23:16:48.549Z,10.32
2018-11-14T23:19:17.908Z,10.38
2018-11-14T23:21:47.365Z,10.37
2018-11-14T23:24:16.906Z,10.35
2018-11-14T23:26:46.253Z,10.28
2018-11-14T23:29:15.688Z,10.28
2018-11-14T23:31:45.132Z,10.23
2018-11-14T23:34:14.514Z,10.25
2018-11-14T23:36:44.049Z,10.28
2018-11-14T23:39:14.360Z,10.30
2018-11-14T23:41:43.744Z,10.29
2018-11-14T23:44:13.063Z,10.20
2018-11-14T23:46:42.470Z,10.16
2018-11-14T23:49:11.839Z,10.15
2018-11-14T23:51:41.179Z,10.10
2018-11-14T23:54:10.536Z,10.06
2018-11-14T23:56:39.989Z,10.06
2018-11-14T23:59:09.375Z,10.02
